createdAt,value
2019-01-19T00:02:46.228Z,11.50
2019-01-19T00:05:52.521Z,11.78
2019-01-19T00:08:37.764Z,11.87
2019-01-19T00:11:42.261Z,12.37
2019-01-19T00:14:48.216Z,12.20
2019-01-19T00:18:07.703Z,13.03
2019-01-19T00:21:11.459Z,13.13
2019-01-19T00:24:23.666Z,13.08
2019-01-19T00:27:36.655Z,12.97
2019-01-19T00:30:23.447Z,13.07
2019-01-19T00:33:36.805Z,13.10
2019-01-19T00:36:46.362Z,13.22
2019-01-19T00:39:55.562Z,12.85
2019-01-19T00:42:53.069Z,13.30
2019-01-19T00:45:53.718Z,13.58
2019-01-19T00:49:00.374Z,12.43
2019-01-19T00:52:29.457Z,13.30
2019-01-19T00:55:20.276Z,11.75
2019-01-19T00:58:42.252Z,12.23
2019-01-19T01:01:42.804Z,13.05
2019-01-19T01:04:55.485Z,13.18
2019-01-19T01:07:58.110Z,12.68
2019-01-19T01:10:56.507Z,12.50
2019-01-19T01:13:54.792Z,13.30
2019-01-19T01:16:44.556Z,13.77
2019-01-19T01:19:57.139Z,12.35
2019-01-19T01:22:56.333Z,12.82
2019-01-19T01:26:10.042Z,14.00
2019-01-19T01:29:11.036Z,14.10
2019-01-19T01:32:02.761Z,13.17
2019-01-19T01:34:53.578Z,14.20
2019-01-19T01:38:04.477Z,14.07
2019-01-19T01:41:20.732Z,14.35
2019-01-19T01:44:12.300Z,13.78
2019-01-19T01:47:24.077Z,13.70
2019-01-19T01:50:30.311Z,13.45
2019-01-19T01:53:32.217Z,13.70
2019-01-19T01:56:07.112Z,14.63
2019-01-19T01:59:14.341Z,14.40
2019-01-19T02:02:06.898Z,14.98
2019-01-19T02:05:15.271Z,14.25
2019-01-19T02:08:05.058Z,14.45
2019-01-19T02:11:15.619Z,14.20
2019-01-19T02:13:51.692Z,13.53
2019-01-19T02:17:04.557Z,14.50
2019-01-19T02:20:26.360Z,13.78
2019-01-19T02:23:45.770Z,14.90
2019-01-19T02:26:44.282Z,14.00
2019-01-19T02:29:35.382Z,13.98
2019-01-19T02:32:51.807Z,14.43
2019-01-19T02:36:03.007Z,14.75
2019-01-19T02:38:57.901Z,16.00
2019-01-19T02:42:01.104Z,14.35
2019-01-19T02:44:55.977Z,12.82
2019-01-19T02:48:09.456Z,13.72
2019-01-19T02:51:06.747Z,15.93
2019-01-19T02:54:19.215Z,14.93
2019-01-19T02:57:28.800Z,15.85
2019-01-19T03:00:32.941Z,15.48
2019-01-19T03:03:29.207Z,15.08
2019-01-19T03:06:18.112Z,15.93
2019-01-19T03:09:11.609Z,16.62
2019-01-19T03:12:33.620Z,16.00
2019-01-19T03:15:29.552Z,16.10
2019-01-19T03:18:56.001Z,16.23
2019-01-19T03:21:40.707Z,16.90
2019-01-19T03:24:42.330Z,15.78
2019-01-19T03:27:38.207Z,16.85
2019-01-19T03:30:36.826Z,16.42
2019-01-19T03:33:44.829Z,16.93
2019-01-19T03:36:38.922Z,16.62
2019-01-19T03:39:38.518Z,16.40
2019-01-19T03:42:35.154Z,17.27
2019-01-19T03:45:16.667Z,17.10
2019-01-19T03:48:02.129Z,17.90
2019-01-19T03:51:09.862Z,18.27
2019-01-19T03:54:38.889Z,18.90
2019-01-19T03:57:36.593Z,18.67
2019-01-19T04:00:31.574Z,16.52
2019-01-19T04:03:56.216Z,19.15
2019-01-19T04:07:09.860Z,19.30
2019-01-19T04:10:12.982Z,18.73
2019-01-19T04:13:17.053Z,18.45
2019-01-19T04:16:30.892Z,19.80
2019-01-19T04:19:29.521Z,19.37
2019-01-19T04:22:30.375Z,20.08
2019-01-19T04:25:15.708Z,19.62
2019-01-19T04:27:45.407Z,19.02
2019-01-19T04:30:15.204Z,19.70
2019-01-19T04:32:44.927Z,20.60
2019-01-19T04:35:14.560Z,21.80
2019-01-19T04:37:44.346Z,21.80
2019-01-19T04:40:14.225Z,21.02
2019-01-19T04:42:45.224Z,22.00
2019-01-19T04:45:15.050Z,21.02
2019-01-19T04:47:44.837Z,19.70
2019-01-19T04:50:14.462Z,20.68
2019-01-19T04:52:44.236Z,20.57
2019-01-19T04:55:13.342Z,21.68
2019-01-19T04:57:43.179Z,21.23
2019-01-19T05:00:17.779Z,21.90
2019-01-19T05:02:47.682Z,23.45
2019-01-19T05:05:17.429Z,23.57
2019-01-19T05:07:47.168Z,21.80
2019-01-19T05:10:16.969Z,23.12
2019-01-19T05:12:46.641Z,23.30
2019-01-19T05:15:18.863Z,23.07
2019-01-19T05:17:48.666Z,21.80
2019-01-19T05:20:18.314Z,20.50
2019-01-19T05:22:48.092Z,19.87
2019-01-19T05:25:17.800Z,19.23
2019-01-19T05:27:47.481Z,19.98
2019-01-19T05:30:19.231Z,19.30
2019-01-19T05:32:49.067Z,18.35
2019-01-19T05:35:18.894Z,19.95
2019-01-19T05:37:48.552Z,18.00
2019-01-19T05:40:18.152Z,17.23
2019-01-19T05:42:47.805Z,17.65
2019-01-19T05:45:17.535Z,17.70
2019-01-19T05:47:47.241Z,17.12
2019-01-19T05:50:19.331Z,17.10
2019-01-19T05:52:49.017Z,16.10
2019-01-19T05:55:18.828Z,16.50
2019-01-19T05:57:48.567Z,15.18
2019-01-19T06:00:35.529Z,14.05
2019-01-19T06:03:06.082Z,15.48
2019-01-19T06:05:37.312Z,15.88
2019-01-19T06:08:06.978Z,15.32
2019-01-19T06:10:36.720Z,15.75
2019-01-19T06:13:06.440Z,16.05
2019-01-19T06:15:36.124Z,15.72
2019-01-19T06:18:05.856Z,14.43
2019-01-19T06:20:35.533Z,15.03
2019-01-19T06:23:05.307Z,13.70
2019-01-19T06:25:35.045Z,14.98
2019-01-19T06:28:04.636Z,14.05
2019-01-19T06:30:34.423Z,14.05
2019-01-19T06:33:04.066Z,13.78
2019-01-19T06:35:33.787Z,13.70
2019-01-19T06:38:03.521Z,14.45
2019-01-19T06:40:33.505Z,15.90
2019-01-19T06:43:03.236Z,13.90
2019-01-19T06:45:32.913Z,13.93
2019-01-19T06:48:02.528Z,13.90
2019-01-19T06:50:32.281Z,13.50
2019-01-19T06:53:02.105Z,13.85
2019-01-19T06:55:33.854Z,13.90
2019-01-19T06:58:03.708Z,14.03
2019-01-19T07:00:33.564Z,13.20
2019-01-19T07:03:03.223Z,13.45
2019-01-19T07:05:33.040Z,12.35
2019-01-19T07:08:02.672Z,12.03
2019-01-19T07:10:32.457Z,11.18
2019-01-19T07:13:02.225Z,12.73
2019-01-19T07:15:31.969Z,11.75
2019-01-19T07:18:01.808Z,12.40
2019-01-19T07:20:31.592Z,11.75
2019-01-19T07:23:01.266Z,14.53
2019-01-19T07:25:30.915Z,14.55
2019-01-19T07:28:00.530Z,11.30
2019-01-19T07:30:30.378Z,11.22
2019-01-19T07:33:00.012Z,11.33
2019-01-19T07:35:29.710Z,11.15
2019-01-19T07:37:59.468Z,14.80
2019-01-19T07:40:29.257Z,11.15
2019-01-19T07:43:02.487Z,10.45
2019-01-19T07:45:32.093Z,10.53
2019-01-19T07:48:01.886Z,9.75
2019-01-19T07:50:31.676Z,10.23
2019-01-19T07:53:01.394Z,9.95
2019-01-19T07:55:31.050Z,9.25
2019-01-19T07:58:00.762Z,9.98
2019-01-19T08:00:31.918Z,9.83
2019-01-19T08:03:01.726Z,9.28
2019-01-19T08:05:31.472Z,10.30
2019-01-19T08:08:01.101Z,8.98
2019-01-19T08:10:30.879Z,9.28
2019-01-19T08:13:00.492Z,9.63
2019-01-19T08:15:30.241Z,9.75
2019-01-19T08:17:59.976Z,8.73
2019-01-19T08:20:29.726Z,9.08
2019-01-19T08:22:59.459Z,8.50
2019-01-19T08:25:29.154Z,9.45
2019-01-19T08:27:58.920Z,8.05
2019-01-19T08:30:30.165Z,8.10
2019-01-19T08:32:59.797Z,8.95
2019-01-19T08:35:29.950Z,9.20
2019-01-19T08:37:59.578Z,8.85
2019-01-19T08:40:32.063Z,9.15
2019-01-19T08:43:20.827Z,9.38
2019-01-19T08:45:50.581Z,9.60
2019-01-19T08:48:20.633Z,8.65
2019-01-19T08:50:50.394Z,8.25
2019-01-19T08:53:20.130Z,9.20
2019-01-19T08:55:49.912Z,9.45
2019-01-19T08:58:19.798Z,9.50
2019-01-19T09:00:49.562Z,9.73
2019-01-19T09:03:19.321Z,9.70
2019-01-19T09:05:49.068Z,9.33
2019-01-19T09:08:18.803Z,9.00
2019-01-19T09:10:48.451Z,10.03
2019-01-19T09:13:18.091Z,9.43
2019-01-19T09:15:47.946Z,9.95
2019-01-19T09:18:17.699Z,10.08
2019-01-19T09:20:47.392Z,9.40
2019-01-19T09:23:24.408Z,9.30
2019-01-19T09:25:54.127Z,8.53
2019-01-19T09:28:23.862Z,9.90
2019-01-19T09:30:53.538Z,10.10
2019-01-19T09:33:23.477Z,9.88
2019-01-19T09:35:53.319Z,11.03
2019-01-19T09:38:23.000Z,9.87
2019-01-19T09:40:52.790Z,9.13
2019-01-19T09:43:22.524Z,10.13
2019-01-19T09:45:52.293Z,9.57
2019-01-19T09:48:22.164Z,9.55
2019-01-19T09:50:51.940Z,8.77
2019-01-19T09:53:21.826Z,10.73
2019-01-19T09:55:51.610Z,11.03
2019-01-19T09:58:21.198Z,10.83
2019-01-19T10:00:50.865Z,10.73
2019-01-19T10:03:20.576Z,11.27
2019-01-19T10:05:50.567Z,10.50
2019-01-19T10:08:20.360Z,10.67
2019-01-19T10:10:50.149Z,10.83
2019-01-19T10:13:19.863Z,10.70
2019-01-19T10:15:49.583Z,9.67
2019-01-19T10:18:20.170Z,9.53
2019-01-19T10:20:49.909Z,10.70
2019-01-19T10:23:19.580Z,10.77
2019-01-19T10:25:49.317Z,10.00
2019-01-19T10:28:19.027Z,11.27
2019-01-19T10:30:48.763Z,10.70
2019-01-19T10:33:19.348Z,9.77
2019-01-19T10:35:49.472Z,10.03
2019-01-19T10:38:19.235Z,9.87
2019-01-19T10:40:48.868Z,10.03
2019-01-19T10:43:18.748Z,10.07
2019-01-19T10:45:48.494Z,9.13
2019-01-19T10:48:18.138Z,9.43
2019-01-19T10:50:47.825Z,10.23
2019-01-19T10:53:17.615Z,10.20
2019-01-19T10:55:47.360Z,9.37
2019-01-19T10:58:16.968Z,9.63
2019-01-19T11:00:46.657Z,10.57
2019-01-19T11:03:16.617Z,10.90
2019-01-19T11:05:46.407Z,10.20
2019-01-19T11:08:16.262Z,10.23
2019-01-19T11:10:45.929Z,10.90
2019-01-19T11:13:15.652Z,10.30
2019-01-19T11:15:45.329Z,10.83
2019-01-19T11:18:15.711Z,10.63
2019-01-19T11:20:45.327Z,10.93
2019-01-19T11:23:14.975Z,12.27
2019-01-19T11:25:44.740Z,11.80
2019-01-19T11:28:14.344Z,11.43
2019-01-19T11:30:44.049Z,12.40
2019-01-19T11:33:13.701Z,11.83
2019-01-19T11:35:43.412Z,12.50
2019-01-19T11:38:19.909Z,13.07
2019-01-19T11:40:44.588Z,13.00
2019-01-19T11:43:14.242Z,13.00
2019-01-19T11:45:43.997Z,14.20
2019-01-19T11:48:13.731Z,14.77
2019-01-19T11:50:43.446Z,13.90
2019-01-19T11:53:13.154Z,12.57
2019-01-19T11:55:42.916Z,12.97
2019-01-19T11:58:12.711Z,12.30
2019-01-19T12:00:43.257Z,12.57
2019-01-19T12:03:12.911Z,12.00
2019-01-19T12:05:42.594Z,12.13
2019-01-19T12:08:19.384Z,11.80
2019-01-19T12:10:44.619Z,12.40
2019-01-19T12:13:14.357Z,10.87
2019-01-19T12:15:44.162Z,11.67
2019-01-19T12:18:13.819Z,11.30
2019-01-19T12:20:45.730Z,11.57
2019-01-19T12:23:15.419Z,10.30
2019-01-19T12:25:45.209Z,10.00
2019-01-19T12:31:44.837Z,9.87
2019-01-19T12:34:14.599Z,10.03
2019-01-19T12:36:44.312Z,9.87
2019-01-19T12:39:14.053Z,9.60
2019-01-19T12:41:43.685Z,8.50
2019-01-19T12:44:13.367Z,7.90
2019-01-19T12:46:42.949Z,8.77
2019-01-19T12:49:12.679Z,9.47
2019-01-19T12:51:42.286Z,10.10
2019-01-19T12:54:12.059Z,8.97
2019-01-19T12:56:41.858Z,8.27
2019-01-19T12:59:11.563Z,8.87
2019-01-19T13:01:42.342Z,9.13
2019-01-19T13:04:12.124Z,10.27
2019-01-19T13:07:04.419Z,10.33
2019-01-19T13:09:43.664Z,9.63
2019-01-19T13:13:09.653Z,8.80
2019-01-19T13:16:15.962Z,8.90
2019-01-19T13:18:51.220Z,9.33
2019-01-19T13:21:55.428Z,9.20
2019-01-19T13:24:59.236Z,9.97
2019-01-19T13:28:06.971Z,9.83
2019-01-19T13:31:14.550Z,10.00
2019-01-19T13:34:30.846Z,9.80
2019-01-19T13:37:42.957Z,9.83
2019-01-19T13:40:52.126Z,10.17
2019-01-19T13:43:51.709Z,10.20
2019-01-19T13:46:35.427Z,9.23
2019-01-19T13:50:00.938Z,9.17
2019-01-19T13:52:55.762Z,9.10
2019-01-19T13:55:59.949Z,8.83
2019-01-19T13:58:58.971Z,9.33
2019-01-19T14:02:17.193Z,9.17
2019-01-19T14:05:03.485Z,9.97
2019-01-19T14:08:11.039Z,9.53
2019-01-19T14:11:08.492Z,9.47
2019-01-19T14:14:27.143Z,9.77
2019-01-19T14:17:37.011Z,9.67
2019-01-19T14:20:17.266Z,9.10
2019-01-19T14:23:24.452Z,10.80
2019-01-19T14:26:19.989Z,10.70
2019-01-19T14:29:32.052Z,9.70
2019-01-19T14:35:47.384Z,9.90
2019-01-19T14:38:58.839Z,9.97
2019-01-19T14:42:00.342Z,9.60
2019-01-19T14:44:59.292Z,10.80
2019-01-19T14:48:09.942Z,9.90
2019-01-19T14:51:02.920Z,10.97
2019-01-19T14:53:45.885Z,10.40
2019-01-19T14:56:31.309Z,9.47
2019-01-19T14:59:26.263Z,10.20
2019-01-19T15:02:35.326Z,9.73
2019-01-19T15:05:24.717Z,10.20
2019-01-19T15:08:33.957Z,8.93
2019-01-19T15:11:26.523Z,10.37
2019-01-19T15:14:46.569Z,9.93
2019-01-19T15:17:41.308Z,9.83
2019-01-19T15:20:45.384Z,9.07
2019-01-19T15:24:15.549Z,9.20
2019-01-19T15:27:12.532Z,9.53
2019-01-19T15:30:14.399Z,10.10
2019-01-19T15:33:09.445Z,9.90
2019-01-19T15:36:27.434Z,9.87
2019-01-19T15:39:25.856Z,9.10
2019-01-19T15:42:41.662Z,9.53
2019-01-19T15:45:46.744Z,9.93
2019-01-19T15:49:00.032Z,10.03
2019-01-19T15:51:53.090Z,9.27
2019-01-19T15:54:53.618Z,10.30
2019-01-19T15:58:01.888Z,10.03
2019-01-19T16:01:04.479Z,11.50
2019-01-19T16:04:18.810Z,11.33
2019-01-19T16:07:26.877Z,9.95
2019-01-19T16:10:39.660Z,11.97
2019-01-19T16:14:05.329Z,10.97
2019-01-19T16:17:20.112Z,11.43
2019-01-19T16:20:45.911Z,11.45
2019-01-19T16:23:49.327Z,11.80
2019-01-19T16:27:04.950Z,25.27
2019-01-19T16:29:57.497Z,14.17
2019-01-19T16:32:51.732Z,12.85
2019-01-19T16:35:43.824Z,12.07
2019-01-19T16:38:38.288Z,11.90
2019-01-19T16:41:49.159Z,11.90
2019-01-19T16:45:05.904Z,12.35
2019-01-19T16:48:08.970Z,12.63
2019-01-19T16:51:01.206Z,13.93
2019-01-19T16:53:47.679Z,12.98
2019-01-19T16:56:58.219Z,13.10
2019-01-19T16:59:48.906Z,13.90
2019-01-19T17:02:43.978Z,13.75
2019-01-19T17:05:56.884Z,14.80
2019-01-19T17:09:04.594Z,15.23
2019-01-19T17:12:09.667Z,14.75
2019-01-19T17:14:58.398Z,15.40
2019-01-19T17:17:51.393Z,14.10
2019-01-19T17:20:32.416Z,15.38
2019-01-19T17:23:52.025Z,15.63
2019-01-19T17:27:06.384Z,14.95
2019-01-19T17:30:12.854Z,14.70
2019-01-19T17:33:39.696Z,14.95
2019-01-19T17:36:27.052Z,15.65
2019-01-19T17:39:40.127Z,15.50
2019-01-19T17:42:49.789Z,15.72
2019-01-19T17:46:09.484Z,16.30
2019-01-19T17:49:07.761Z,17.77
2019-01-19T17:52:24.616Z,19.32
2019-01-19T17:55:34.473Z,19.50
2019-01-19T17:58:41.253Z,22.45
2019-01-19T18:01:48.259Z,18.15
2019-01-19T18:04:40.004Z,18.77
2019-01-19T18:08:04.042Z,18.95
2019-01-19T18:11:16.111Z,21.42
2019-01-19T18:14:09.010Z,27.37
2019-01-19T18:17:11.136Z,48.87
2019-01-19T18:20:23.538Z,21.05
2019-01-19T18:23:21.887Z,18.70
2019-01-19T18:26:34.818Z,18.75
2019-01-19T18:30:00.341Z,19.07
2019-01-19T18:33:02.227Z,19.15
2019-01-19T18:36:00.798Z,18.65
2019-01-19T18:38:50.824Z,17.52
2019-01-19T18:42:10.393Z,18.32
2019-01-19T18:45:18.118Z,18.02
2019-01-19T18:48:22.349Z,18.62
2019-01-19T18:51:04.662Z,18.27
2019-01-19T18:54:15.571Z,17.85
2019-01-19T18:57:24.208Z,17.55
2019-01-19T19:00:37.984Z,17.95
2019-01-19T19:03:43.872Z,17.75
2019-01-19T19:07:05.727Z,19.52
2019-01-19T19:10:22.563Z,18.70
2019-01-19T19:13:14.499Z,19.65
2019-01-19T19:16:49.726Z,19.77
2019-01-19T19:19:52.474Z,21.33
2019-01-19T19:22:50.616Z,22.62
2019-01-19T19:25:58.879Z,21.07
2019-01-19T19:29:24.820Z,19.87
2019-01-19T19:32:16.625Z,21.68
2019-01-19T19:35:21.627Z,21.60
2019-01-19T19:38:28.762Z,22.13
2019-01-19T19:41:25.687Z,19.55
2019-01-19T19:44:16.982Z,21.70
2019-01-19T19:47:38.594Z,20.05
2019-01-19T19:50:46.423Z,21.37
2019-01-19T19:53:16.298Z,21.68
2019-01-19T19:55:44.484Z,23.32
2019-01-19T19:58:14.285Z,21.00
2019-01-19T20:00:44.244Z,20.17
2019-01-19T20:03:14.092Z,25.97
2019-01-19T20:05:43.944Z,29.18
2019-01-19T20:08:13.740Z,27.48
2019-01-19T20:10:43.641Z,26.05
2019-01-19T20:13:13.577Z,24.70
2019-01-19T20:15:43.404Z,22.35
2019-01-19T20:18:13.456Z,20.27
2019-01-19T20:20:43.458Z,19.05
2019-01-19T20:23:13.429Z,24.20
2019-01-19T20:25:43.240Z,26.87
2019-01-19T20:28:13.153Z,24.67
2019-01-19T20:30:43.086Z,26.35
2019-01-19T20:33:13.122Z,23.95
2019-01-19T20:35:42.827Z,20.77
2019-01-19T20:38:12.813Z,24.43
2019-01-19T20:40:42.642Z,20.95
2019-01-19T20:43:12.618Z,23.15
2019-01-19T20:45:42.411Z,22.98
2019-01-19T20:48:12.810Z,21.90
2019-01-19T20:50:42.592Z,20.12
2019-01-19T20:53:12.350Z,18.50
2019-01-19T20:55:42.058Z,18.15
2019-01-19T20:58:11.784Z,19.82
2019-01-19T21:00:41.539Z,17.97
2019-01-19T21:03:11.188Z,19.55
2019-01-19T21:05:40.824Z,18.95
2019-01-19T21:08:10.590Z,18.55
2019-01-19T21:10:40.244Z,21.97
2019-01-19T21:13:09.998Z,21.95
2019-01-19T21:15:39.758Z,18.57
2019-01-19T21:18:09.525Z,22.55
2019-01-19T21:20:39.162Z,22.25
2019-01-19T21:23:08.861Z,21.55
2019-01-19T21:25:38.582Z,20.70
2019-01-19T21:28:08.329Z,23.45
2019-01-19T21:30:38.043Z,23.07
2019-01-19T21:33:07.704Z,22.07
2019-01-19T21:35:37.518Z,20.82
2019-01-19T21:38:07.318Z,21.17
2019-01-19T21:40:39.193Z,20.10
2019-01-19T21:43:08.683Z,21.80
2019-01-19T21:45:38.569Z,18.37
2019-01-19T21:48:08.312Z,20.72
2019-01-19T21:50:38.046Z,18.82
2019-01-19T21:53:08.032Z,19.37
2019-01-19T21:55:37.774Z,20.00
2019-01-19T21:58:07.415Z,22.93
2019-01-19T22:00:37.168Z,25.68
2019-01-19T22:03:06.937Z,20.57
2019-01-19T22:05:36.578Z,23.47
2019-01-19T22:08:06.387Z,23.18
2019-01-19T22:10:36.169Z,20.10
2019-01-19T22:13:06.122Z,24.87
2019-01-19T22:15:35.899Z,18.60
2019-01-19T22:18:05.506Z,22.77
2019-01-19T22:20:35.138Z,26.27
2019-01-19T22:23:04.864Z,24.70
2019-01-19T22:25:34.674Z,19.40
2019-01-19T22:28:04.683Z,19.60
2019-01-19T22:30:34.497Z,19.48
2019-01-19T22:33:04.645Z,23.15
2019-01-19T22:35:34.560Z,20.20
2019-01-19T22:38:04.328Z,22.13
2019-01-19T22:40:33.979Z,25.35
2019-01-19T22:43:06.736Z,29.72
2019-01-19T22:45:36.511Z,22.30
2019-01-19T22:48:06.528Z,21.82
2019-01-19T22:50:36.275Z,20.97
2019-01-19T22:53:07.090Z,23.95
2019-01-19T22:55:36.860Z,24.85
2019-01-19T22:58:06.537Z,26.37
2019-01-19T23:01:13.926Z,26.35
2019-01-19T23:03:43.704Z,21.02
2019-01-19T23:06:13.345Z,20.12
2019-01-19T23:08:43.057Z,22.45
2019-01-19T23:11:12.903Z,20.40
2019-01-19T23:13:44.126Z,22.58
2019-01-19T23:16:13.933Z,20.20
2019-01-19T23:18:43.690Z,22.15
2019-01-19T23:21:13.360Z,24.70
2019-01-19T23:23:43.125Z,21.07
2019-01-19T23:26:13.031Z,21.40
2019-01-19T23:28:42.824Z,20.90
2019-01-19T23:31:12.570Z,22.10
2019-01-19T23:33:42.210Z,21.82
2019-01-19T23:36:11.834Z,18.05
2019-01-19T23:38:41.471Z,20.97
2019-01-19T23:41:11.230Z,19.62
2019-01-19T23:43:40.870Z,22.00
2019-01-19T23:46:10.544Z,22.17
2019-01-19T23:48:40.307Z,23.20
2019-01-19T23:51:10.100Z,19.77
2019-01-19T23:53:39.764Z,20.30
2019-01-19T23:56:09.444Z,20.82
2019-01-19T23:58:39.111Z,21.30
